createdAt,value
2023-04-18T00:00:01.985Z,68.13
2023-04-18T00:02:29.567Z,67.46
2023-04-18T00:04:56.435Z,67.99
2023-04-18T00:07:23.042Z,68.24
2023-04-18T00:09:49.434Z,69.12
2023-04-18T00:12:15.860Z,68.90
2023-04-18T00:14:42.261Z,68.40
2023-04-18T00:17:08.813Z,68.07
2023-04-18T00:19:37.030Z,68.39
2023-04-18T00:22:03.436Z,67.72
2023-04-18T00:24:29.841Z,68.84
2023-04-18T00:26:57.065Z,69.33
2023-04-18T00:29:23.505Z,68.19
2023-04-18T00:31:49.923Z,68.43
2023-04-18T00:34:16.400Z,67.69
2023-04-18T00:36:42.849Z,67.69
2023-04-18T00:39:09.323Z,68.20
2023-04-18T00:41:35.753Z,68.42
2023-04-18T00:44:02.184Z,68.26
2023-04-18T00:46:28.617Z,68.47
2023-04-18T00:48:55.068Z,69.66
2023-04-18T00:51:21.661Z,70.60
2023-04-18T00:53:48.228Z,70.55
2023-04-18T00:56:14.736Z,70.82
2023-04-18T00:58:41.309Z,70.52
2023-04-18T01:01:08.870Z,70.04
2023-04-18T01:03:37.258Z,71.15
2023-04-18T01:06:04.086Z,69.94
2023-04-18T01:08:30.793Z,70.20
2023-04-18T01:10:57.256Z,69.90
2023-04-18T01:13:23.725Z,69.06
2023-04-18T01:15:50.860Z,69.45
2023-04-18T01:18:17.836Z,70.62
2023-04-18T01:20:47.297Z,70.05
2023-04-18T01:23:14.390Z,68.45
2023-04-18T01:25:40.957Z,69.95
2023-04-18T01:28:07.811Z,68.68
2023-04-18T01:30:34.523Z,69.65
2023-04-18T01:33:02.113Z,68.49
2023-04-18T01:35:28.700Z,68.46
2023-04-18T01:37:55.153Z,67.58
2023-04-18T01:40:21.942Z,68.76
2023-04-18T01:42:48.417Z,69.12
2023-04-18T01:45:16.016Z,69.18
2023-04-18T01:47:43.375Z,69.97
2023-04-18T01:50:12.497Z,70.26
2023-04-18T01:52:38.941Z,70.07
2023-04-18T01:55:06.158Z,69.90
2023-04-18T01:57:34.044Z,70.04
2023-04-18T02:00:00.596Z,69.64
2023-04-18T02:02:27.143Z,69.79
2023-04-18T02:04:53.749Z,69.78
2023-04-18T02:07:20.183Z,70.99
2023-04-18T02:09:46.600Z,70.70
2023-04-18T02:12:13.079Z,70.84
2023-04-18T02:14:39.514Z,71.40
2023-04-18T02:17:06.204Z,71.44
2023-04-18T02:19:32.622Z,70.36
2023-04-18T02:21:59.060Z,71.87
2023-04-18T02:24:25.446Z,71.71
2023-04-18T02:26:51.958Z,71.73
2023-04-18T02:29:18.359Z,71.23
2023-04-18T02:31:44.926Z,72.25
2023-04-18T02:34:11.595Z,71.58
2023-04-18T02:36:38.218Z,71.67
2023-04-18T02:39:04.639Z,71.17
2023-04-18T02:41:31.196Z,71.60
2023-04-18T02:43:58.990Z,72.47
2023-04-18T02:46:25.710Z,72.10
2023-04-18T02:48:52.217Z,72.52
2023-04-18T02:51:19.853Z,72.22
2023-04-18T02:53:46.675Z,72.13
2023-04-18T02:56:16.965Z,73.66
2023-04-18T02:58:43.450Z,72.88
2023-04-18T03:01:09.940Z,73.36
2023-04-18T03:03:36.453Z,72.81
2023-04-18T03:06:02.941Z,73.56
2023-04-18T03:08:29.335Z,73.89
2023-04-18T03:10:56.486Z,74.13
2023-04-18T03:13:22.990Z,74.31
2023-04-18T03:15:50.930Z,75.05
2023-04-18T03:18:17.358Z,75.09
2023-04-18T03:20:43.767Z,75.53
2023-04-18T03:23:10.187Z,75.14
2023-04-18T03:25:37.135Z,75.76
2023-04-18T03:28:03.610Z,75.60
2023-04-18T03:30:30.054Z,75.52
2023-04-18T03:32:56.575Z,76.05
2023-04-18T03:35:23.194Z,75.75
2023-04-18T03:37:49.593Z,75.76
2023-04-18T03:40:16.145Z,75.66
2023-04-18T03:42:42.552Z,75.41
2023-04-18T03:45:09.428Z,76.11
2023-04-18T03:47:35.901Z,75.57
2023-04-18T03:50:02.380Z,75.56
2023-04-18T03:52:29.852Z,74.67
2023-04-18T03:54:56.489Z,74.95
2023-04-18T03:57:23.303Z,75.25
2023-04-18T03:59:49.843Z,75.57
2023-04-18T04:02:16.424Z,74.07
2023-04-18T04:04:43.044Z,74.98
2023-04-18T04:07:09.545Z,74.79
2023-04-18T04:09:35.978Z,76.27
2023-04-18T04:12:02.941Z,75.30
2023-04-18T04:14:29.380Z,74.81
2023-04-18T04:16:55.880Z,75.27
2023-04-18T04:19:22.304Z,74.99
2023-04-18T04:21:48.920Z,75.42
2023-04-18T04:24:15.879Z,75.22
2023-04-18T04:26:43.027Z,76.00
2023-04-18T04:29:10.729Z,75.39
2023-04-18T04:31:37.525Z,76.39
2023-04-18T04:34:04.928Z,76.40
2023-04-18T04:36:33.301Z,75.41
2023-04-18T04:38:59.789Z,76.38
2023-04-18T04:41:27.945Z,76.11
2023-04-18T04:43:54.460Z,76.58
2023-04-18T04:46:21.149Z,75.44
2023-04-18T04:48:47.718Z,76.50
2023-04-18T04:51:14.201Z,76.70
2023-04-18T04:53:40.709Z,76.59
2023-04-18T04:56:07.382Z,76.70
2023-04-18T04:58:33.774Z,76.68
2023-04-18T05:01:02.427Z,76.21
2023-04-18T05:03:29.124Z,76.22
2023-04-18T05:05:55.914Z,76.59
2023-04-18T05:08:22.455Z,76.59
2023-04-18T05:10:49.971Z,76.23
2023-04-18T05:13:16.475Z,76.38
2023-04-18T05:15:42.948Z,76.30
2023-04-18T05:18:09.555Z,76.00
2023-04-18T05:20:36.040Z,76.94
2023-04-18T05:23:02.452Z,77.13
2023-04-18T05:25:29.765Z,76.25
2023-04-18T05:27:56.184Z,76.87
2023-04-18T05:30:22.696Z,76.22
2023-04-18T05:32:49.223Z,76.66
2023-04-18T05:35:15.796Z,76.52
2023-04-18T05:37:42.299Z,75.75
2023-04-18T05:40:09.206Z,75.68
2023-04-18T05:42:35.771Z,76.09
2023-04-18T05:45:02.242Z,76.61
2023-04-18T05:47:30.258Z,76.93
2023-04-18T05:49:56.693Z,76.43
2023-04-18T05:52:23.156Z,77.45
2023-04-18T05:54:49.588Z,77.93
2023-04-18T05:57:16.022Z,77.71
2023-04-18T05:59:42.826Z,78.34
2023-04-18T06:02:13.312Z,77.85
2023-04-18T06:04:41.861Z,78.42
2023-04-18T06:07:09.281Z,77.49
2023-04-18T06:09:35.767Z,78.40
2023-04-18T06:12:02.197Z,77.40
2023-04-18T06:14:28.889Z,76.67
2023-04-18T06:16:55.511Z,77.01
2023-04-18T06:19:22.141Z,76.66
2023-04-18T06:21:49.081Z,75.54
2023-04-18T06:24:16.008Z,75.76
2023-04-18T06:26:42.836Z,74.78
2023-04-18T06:29:09.265Z,74.38
2023-04-18T06:31:35.774Z,73.53
2023-04-18T06:34:02.228Z,72.29
2023-04-18T06:36:28.675Z,70.85
2023-04-18T06:38:55.141Z,72.01
2023-04-18T06:41:21.563Z,71.22
2023-04-18T06:44:02.073Z,70.69
2023-04-18T06:46:30.101Z,70.89
2023-04-18T06:48:56.834Z,71.01
2023-04-18T06:51:23.267Z,69.91
2023-04-18T06:53:52.680Z,70.14
2023-04-18T06:56:22.246Z,69.44
2023-04-18T06:58:49.199Z,68.92
2023-04-18T07:01:15.882Z,69.91
2023-04-18T07:03:42.449Z,71.13
2023-04-18T07:06:10.462Z,70.88
2023-04-18T07:08:37.145Z,70.06
2023-04-18T07:11:03.599Z,69.25
2023-04-18T07:13:29.996Z,68.08
2023-04-18T07:15:56.738Z,67.89
2023-04-18T07:18:34.262Z,68.07
2023-04-18T07:21:07.101Z,69.15
2023-04-18T07:23:33.577Z,68.77
2023-04-18T07:26:02.424Z,69.86
2023-04-18T07:28:29.468Z,70.88
2023-04-18T07:30:56.975Z,71.02
2023-04-18T07:33:24.186Z,72.31
2023-04-18T07:35:51.401Z,71.00
2023-04-18T07:38:17.862Z,70.67
2023-04-18T07:40:47.376Z,70.17
2023-04-18T07:43:13.820Z,68.97
2023-04-18T07:45:43.434Z,68.66
2023-04-18T07:48:09.907Z,69.66
2023-04-18T07:50:36.418Z,70.55
2023-04-18T07:53:03.266Z,70.29
2023-04-18T07:55:29.898Z,70.75
2023-04-18T07:57:56.327Z,69.58
2023-04-18T08:00:22.813Z,70.69
2023-04-18T08:02:49.449Z,71.54
2023-04-18T08:05:16.192Z,70.74
2023-04-18T08:07:43.278Z,70.64
2023-04-18T08:10:09.774Z,70.54
2023-04-18T08:12:36.689Z,71.41
2023-04-18T08:15:04.021Z,71.02
2023-04-18T08:17:31.054Z,72.32
2023-04-18T08:19:57.916Z,71.91
2023-04-18T08:22:24.396Z,71.68
2023-04-18T08:25:03.774Z,72.12
2023-04-18T08:27:32.353Z,71.14
2023-04-18T08:29:58.853Z,70.26
2023-04-18T08:32:25.897Z,70.21
2023-04-18T08:34:52.385Z,70.03
2023-04-18T08:37:18.831Z,70.21
2023-04-18T08:39:45.262Z,70.62
2023-04-18T08:42:13.065Z,70.66
2023-04-18T08:44:39.600Z,70.06
2023-04-18T08:47:08.966Z,68.26
2023-04-18T08:49:36.107Z,67.77
2023-04-18T08:52:02.805Z,67.63
2023-04-18T08:54:30.482Z,67.79
2023-04-18T08:57:07.436Z,66.70
2023-04-18T08:59:35.570Z,67.37
2023-04-18T09:02:08.729Z,68.16
2023-04-18T09:04:44.922Z,68.32
2023-04-18T09:07:13.306Z,68.80
2023-04-18T09:09:49.990Z,68.93
2023-04-18T09:12:19.554Z,68.66
2023-04-18T09:14:47.117Z,70.06
2023-04-18T09:17:16.267Z,69.64
2023-04-18T09:19:48.859Z,69.13
2023-04-18T09:22:16.204Z,68.75
2023-04-18T09:24:57.423Z,68.88
2023-04-18T09:27:24.498Z,69.53
2023-04-18T09:29:52.451Z,69.39
2023-04-18T09:32:27.483Z,69.91
2023-04-18T09:34:58.065Z,68.84
2023-04-18T09:37:25.973Z,69.41
2023-04-18T09:39:52.658Z,70.24
2023-04-18T09:42:19.597Z,70.64
2023-04-18T09:44:59.855Z,69.75
2023-04-18T09:47:27.763Z,69.91
2023-04-18T09:49:54.227Z,69.59
2023-04-18T09:52:21.546Z,70.09
2023-04-18T09:54:48.905Z,69.32
2023-04-18T09:57:16.711Z,70.31
2023-04-18T09:59:58.850Z,70.33
2023-04-18T10:02:29.252Z,70.37
2023-04-18T10:04:57.194Z,68.80
2023-04-18T10:07:24.766Z,69.47
2023-04-18T10:09:51.522Z,68.67
2023-04-18T10:12:18.512Z,68.90
2023-04-18T10:14:45.776Z,68.07
2023-04-18T10:17:14.531Z,67.93
2023-04-18T10:19:41.977Z,66.76
2023-04-18T10:22:08.522Z,67.71
2023-04-18T10:24:53.824Z,68.66
2023-04-18T10:28:05.929Z,68.72
2023-04-18T10:30:38.930Z,68.89
2023-04-18T10:33:31.682Z,71.53
2023-04-18T10:36:26.757Z,71.96
2023-04-18T10:38:54.690Z,71.79
2023-04-18T10:41:23.832Z,71.99
2023-04-18T10:44:23.719Z,71.97
2023-04-18T10:46:50.736Z,71.31
2023-04-18T10:49:21.655Z,72.00
2023-04-18T10:51:59.973Z,71.17
2023-04-18T10:54:52.081Z,73.31
2023-04-18T10:57:18.610Z,72.89
2023-04-18T10:59:48.886Z,71.48
2023-04-18T11:02:28.879Z,70.88
2023-04-18T11:05:07.070Z,71.56
2023-04-18T11:07:36.567Z,70.59
2023-04-18T11:10:04.609Z,72.65
2023-04-18T11:12:33.053Z,72.61
2023-04-18T11:15:02.855Z,71.28
2023-04-18T11:17:35.639Z,71.17
2023-04-18T11:20:09.328Z,72.30
2023-04-18T11:22:46.065Z,71.45
2023-04-18T11:25:12.692Z,69.15
2023-04-18T11:27:41.995Z,68.92
2023-04-18T11:30:08.786Z,69.29
2023-04-18T11:32:36.110Z,68.84
2023-04-18T11:35:03.534Z,69.31
2023-04-18T11:37:32.766Z,69.47
2023-04-18T11:39:59.259Z,70.53
2023-04-18T11:42:31.833Z,69.15
2023-04-18T11:44:58.288Z,70.65
2023-04-18T11:47:33.859Z,71.01
2023-04-18T11:50:02.748Z,70.20
2023-04-18T11:52:30.650Z,70.83
2023-04-18T11:55:12.994Z,71.32
2023-04-18T11:57:40.122Z,70.75
2023-04-18T12:00:08.884Z,70.47
2023-04-18T12:02:43.884Z,70.46
2023-04-18T12:05:11.984Z,70.78
2023-04-18T12:07:40.345Z,70.74
2023-04-18T12:10:28.439Z,71.37
2023-04-18T12:12:57.451Z,70.65
2023-04-18T12:15:27.265Z,70.90
2023-04-18T12:17:59.127Z,71.00
2023-04-18T12:20:25.827Z,71.98
2023-04-18T12:22:54.155Z,72.31
2023-04-18T12:25:25.258Z,72.56
2023-04-18T12:27:56.626Z,72.73
2023-04-18T12:30:25.508Z,71.64
2023-04-18T12:32:54.014Z,71.89
2023-04-18T12:35:20.994Z,71.64
2023-04-18T12:37:48.297Z,71.27
2023-04-18T12:40:15.104Z,71.50
2023-04-18T12:42:42.310Z,71.10
2023-04-18T12:45:10.594Z,71.51
2023-04-18T12:47:38.426Z,70.96
2023-04-18T12:50:06.776Z,69.79
2023-04-18T12:52:33.523Z,69.23
2023-04-18T12:55:00.009Z,69.91
2023-04-18T12:57:26.821Z,69.28
2023-04-18T12:59:53.313Z,69.95
2023-04-18T13:02:19.860Z,68.73
2023-04-18T13:04:46.495Z,68.03
2023-04-18T13:07:13.133Z,68.99
2023-04-18T13:09:40.641Z,66.72
2023-04-18T13:12:07.061Z,67.40
2023-04-18T13:14:33.502Z,69.05
2023-04-18T13:16:59.918Z,68.04
2023-04-18T13:19:26.430Z,69.21
2023-04-18T13:21:53.265Z,68.23
2023-04-18T13:24:19.757Z,67.96
2023-04-18T13:26:46.221Z,68.58
2023-04-18T13:29:12.970Z,67.08
2023-04-18T13:31:39.716Z,67.53
2023-04-18T13:34:06.293Z,66.69
2023-04-18T13:36:34.703Z,67.30
2023-04-18T13:39:01.886Z,66.67
2023-04-18T13:41:28.882Z,66.83
2023-04-18T13:43:55.688Z,67.36
2023-04-18T13:46:23.334Z,66.99
2023-04-18T13:48:50.041Z,67.49
2023-04-18T13:51:16.457Z,67.70
2023-04-18T13:53:42.883Z,68.87
2023-04-18T13:56:10.509Z,69.16
2023-04-18T13:58:36.914Z,68.71
2023-04-18T14:01:03.331Z,69.00
2023-04-18T14:03:30.012Z,67.30
2023-04-18T14:05:56.827Z,68.28
2023-04-18T14:08:23.265Z,67.81
2023-04-18T14:10:49.715Z,67.59
2023-04-18T14:13:16.587Z,67.35
2023-04-18T14:15:42.987Z,66.75
2023-04-18T14:18:09.455Z,67.21
2023-04-18T14:20:36.323Z,67.00
2023-04-18T14:23:02.840Z,67.11
2023-04-18T14:25:29.797Z,67.61
2023-04-18T14:28:09.326Z,69.02
2023-04-18T14:30:36.550Z,68.92
2023-04-18T14:33:03.776Z,67.74
2023-04-18T14:35:31.039Z,67.78
2023-04-18T14:37:57.473Z,68.48
2023-04-18T14:40:24.328Z,68.50
2023-04-18T14:42:50.750Z,69.38
2023-04-18T14:45:17.231Z,68.85
2023-04-18T14:47:44.032Z,68.58
2023-04-18T14:50:15.247Z,68.43
2023-04-18T14:52:42.027Z,68.91
2023-04-18T14:55:14.857Z,67.76
2023-04-18T14:57:41.332Z,68.46
2023-04-18T15:00:10.642Z,68.62
2023-04-18T15:02:42.608Z,67.01
2023-04-18T15:05:10.227Z,67.38
2023-04-18T15:07:37.793Z,66.87
2023-04-18T15:10:05.123Z,67.44
2023-04-18T15:12:31.637Z,66.97
2023-04-18T15:14:59.466Z,66.71
2023-04-18T15:17:26.089Z,67.13
2023-04-18T15:19:52.589Z,65.79
2023-04-18T15:22:19.028Z,65.81
2023-04-18T15:24:45.789Z,65.03
2023-04-18T15:27:14.916Z,65.89
2023-04-18T15:29:41.402Z,66.52
2023-04-18T15:32:08.655Z,66.48
2023-04-18T15:34:41.803Z,65.75
2023-04-18T15:37:08.327Z,64.46
2023-04-18T15:39:39.018Z,65.77
2023-04-18T15:42:05.826Z,65.09
2023-04-18T15:44:32.265Z,65.20
2023-04-18T15:47:04.915Z,64.26
2023-04-18T15:49:31.951Z,64.51
2023-04-18T15:51:58.330Z,64.72
2023-04-18T15:54:24.824Z,65.53
2023-04-18T15:56:51.587Z,65.36
2023-04-18T15:59:17.970Z,65.51
2023-04-18T16:01:46.122Z,63.14
2023-04-18T16:04:13.187Z,64.41
2023-04-18T16:06:40.444Z,64.37
2023-04-18T16:09:06.947Z,62.81
2023-04-18T16:11:33.399Z,63.06
2023-04-18T16:13:59.834Z,63.51
2023-04-18T16:16:28.332Z,63.02
2023-04-18T16:18:54.897Z,62.86
2023-04-18T16:21:21.449Z,62.09
2023-04-18T16:23:48.667Z,61.83
2023-04-18T16:26:15.170Z,62.22
2023-04-18T16:28:42.025Z,61.57
2023-04-18T16:31:08.576Z,62.31
2023-04-18T16:33:35.038Z,62.66
2023-04-18T16:36:04.596Z,61.48
2023-04-18T16:38:31.192Z,62.26
2023-04-18T16:40:58.658Z,62.24
2023-04-18T16:43:26.949Z,62.14
2023-04-18T16:45:56.460Z,61.44
2023-04-18T16:48:23.983Z,62.32
2023-04-18T16:50:50.677Z,61.90
2023-04-18T16:53:17.259Z,61.99
2023-04-18T16:55:43.707Z,62.53
2023-04-18T16:58:11.127Z,62.12
2023-04-18T17:00:38.517Z,62.92
2023-04-18T17:03:07.249Z,62.69
2023-04-18T17:05:33.820Z,62.40
2023-04-18T17:08:00.547Z,62.36
2023-04-18T17:10:29.218Z,62.87
2023-04-18T17:12:55.955Z,62.72
2023-04-18T17:15:22.766Z,62.68
2023-04-18T17:17:50.435Z,62.86
2023-04-18T17:20:17.743Z,62.99
2023-04-18T17:22:44.243Z,63.98
2023-04-18T17:25:10.761Z,63.30
2023-04-18T17:27:39.343Z,63.10
2023-04-18T17:30:06.909Z,63.30
2023-04-18T17:32:33.392Z,63.06
2023-04-18T17:35:01.879Z,63.78
2023-04-18T17:37:28.333Z,64.22
2023-04-18T17:39:57.034Z,64.36
2023-04-18T17:42:23.438Z,63.90
2023-04-18T17:44:49.864Z,63.46
2023-04-18T17:47:17.948Z,64.00
2023-04-18T17:49:44.469Z,63.50
2023-04-18T17:52:11.220Z,63.90
2023-04-18T17:54:37.655Z,64.08
2023-04-18T17:57:04.383Z,63.55
2023-04-18T17:59:30.834Z,63.66
2023-04-18T18:01:58.505Z,63.79
2023-04-18T18:04:26.632Z,63.53
2023-04-18T18:06:57.112Z,63.42
2023-04-18T18:09:23.599Z,64.56
2023-04-18T18:11:50.073Z,64.02
2023-04-18T18:14:16.778Z,64.54
2023-04-18T18:16:43.256Z,64.12
2023-04-18T18:19:09.792Z,64.63
2023-04-18T18:21:36.513Z,64.79
2023-04-18T18:24:03.026Z,64.37
2023-04-18T18:26:29.541Z,64.83
2023-04-18T18:28:55.963Z,65.46
2023-04-18T18:31:25.660Z,65.54
2023-04-18T18:33:52.171Z,65.29
2023-04-18T18:36:18.626Z,65.74
2023-04-18T18:38:45.179Z,65.82
2023-04-18T18:41:11.598Z,66.14
2023-04-18T18:43:38.036Z,66.32
2023-04-18T18:46:04.571Z,65.68
2023-04-18T18:48:32.698Z,66.18
2023-04-18T18:50:59.198Z,66.77
2023-04-18T18:53:25.695Z,66.58
2023-04-18T18:55:52.140Z,67.32
2023-04-18T18:58:18.578Z,68.09
2023-04-18T19:00:46.841Z,67.55
2023-04-18T19:03:13.394Z,68.37
2023-04-18T19:05:40.089Z,68.49
2023-04-18T19:08:06.721Z,68.84
2023-04-18T19:10:33.216Z,69.54
2023-04-18T19:13:00.334Z,69.90
2023-04-18T19:15:26.970Z,69.77
2023-04-18T19:17:53.449Z,69.45
2023-04-18T19:20:20.205Z,71.00
2023-04-18T19:22:46.685Z,70.67
2023-04-18T19:25:13.139Z,71.13
2023-04-18T19:27:39.612Z,71.81
2023-04-18T19:30:06.747Z,71.70
2023-04-18T19:32:33.240Z,72.12
2023-04-18T19:34:59.969Z,72.44
2023-04-18T19:37:26.362Z,72.78
2023-04-18T19:39:52.774Z,73.14
2023-04-18T19:42:19.289Z,73.13
2023-04-18T19:44:45.738Z,73.70
2023-04-18T19:47:12.207Z,73.41
2023-04-18T19:49:38.648Z,72.99
2023-04-18T19:52:06.052Z,73.23
2023-04-18T19:54:35.745Z,73.83
2023-04-18T19:57:02.714Z,73.91
2023-04-18T19:59:29.121Z,74.11
2023-04-18T20:01:56.686Z,73.54
2023-04-18T20:04:25.674Z,73.58
2023-04-18T20:06:53.451Z,74.19
2023-04-18T20:09:19.885Z,74.29
2023-04-18T20:11:47.691Z,74.98
2023-04-18T20:14:14.153Z,74.68
2023-04-18T20:16:42.752Z,74.47
2023-04-18T20:21:38.881Z,75.43
2023-04-18T20:24:05.638Z,75.86
2023-04-18T20:26:32.152Z,75.23
2023-04-18T20:28:59.036Z,75.22
2023-04-18T20:31:25.473Z,75.81
2023-04-18T20:33:51.909Z,76.29
2023-04-18T20:36:18.302Z,76.09
2023-04-18T20:38:44.697Z,75.63
2023-04-18T20:41:14.797Z,75.96
2023-04-18T20:43:43.397Z,75.79
2023-04-18T20:46:12.751Z,76.30
2023-04-18T20:48:39.992Z,76.05
2023-04-18T20:51:06.669Z,75.84
2023-04-18T20:53:33.130Z,76.72
2023-04-18T20:56:02.133Z,76.62
2023-04-18T20:58:29.711Z,76.67
2023-04-18T21:00:56.123Z,77.13
2023-04-18T21:03:22.717Z,76.57
2023-04-18T21:05:49.236Z,76.32
2023-04-18T21:08:15.619Z,76.30
2023-04-18T21:10:42.107Z,76.47
2023-04-18T21:13:09.201Z,76.93
2023-04-18T21:15:35.799Z,76.78
2023-04-18T21:18:02.413Z,77.19
2023-04-18T21:20:29.074Z,78.00
2023-04-18T21:22:55.478Z,77.58
2023-04-18T21:25:22.078Z,77.31
2023-04-18T21:27:50.433Z,77.85
2023-04-18T21:30:17.081Z,78.25
2023-04-18T21:32:43.523Z,78.43
2023-04-18T21:35:10.199Z,78.75
2023-04-18T21:37:36.653Z,78.25
2023-04-18T21:40:04.529Z,79.05
2023-04-18T21:42:30.971Z,78.61
2023-04-18T21:44:57.481Z,79.55
2023-04-18T21:47:25.842Z,78.71
2023-04-18T21:49:52.443Z,79.26
2023-04-18T21:52:18.862Z,79.09
2023-04-18T21:54:45.406Z,79.05
2023-04-18T21:57:11.812Z,79.37
2023-04-18T21:59:38.278Z,80.06
2023-04-18T22:02:05.475Z,79.92
2023-04-18T22:04:32.040Z,79.19
2023-04-18T22:06:58.489Z,79.93
2023-04-18T22:09:24.960Z,80.22
2023-04-18T22:11:51.682Z,80.81
2023-04-18T22:14:19.908Z,81.37
2023-04-18T22:16:46.392Z,80.84
2023-04-18T22:19:14.121Z,81.13
2023-04-18T22:21:40.639Z,80.86
2023-04-18T22:24:07.732Z,81.60
2023-04-18T22:26:34.224Z,81.90
2023-04-18T22:29:00.739Z,81.27
2023-04-18T22:31:27.328Z,82.52
2023-04-18T22:33:53.834Z,81.68
2023-04-18T22:36:20.293Z,81.97
2023-04-18T22:38:46.705Z,81.98
2023-04-18T22:41:13.146Z,82.01
2023-04-18T22:43:39.584Z,82.74
2023-04-18T22:46:06.167Z,82.57
2023-04-18T22:48:37.729Z,82.16
2023-04-18T22:51:04.184Z,83.04
2023-04-18T22:53:30.597Z,83.24
2023-04-18T22:55:57.031Z,83.41
2023-04-18T22:58:23.434Z,83.42
2023-04-18T23:00:50.275Z,84.82
2023-04-18T23:03:16.833Z,84.12
2023-04-18T23:05:43.373Z,84.18
2023-04-18T23:08:11.811Z,84.05
2023-04-18T23:10:38.656Z,83.38
2023-04-18T23:13:05.095Z,83.95
2023-04-18T23:15:31.538Z,85.54
2023-04-18T23:17:58.027Z,85.05
2023-04-18T23:20:24.477Z,84.29
2023-04-18T23:22:51.680Z,85.27
2023-04-18T23:25:19.387Z,85.30
2023-04-18T23:27:46.089Z,85.21
2023-04-18T23:30:12.836Z,85.57
2023-04-18T23:32:39.381Z,86.24
2023-04-18T23:35:06.556Z,86.03
2023-04-18T23:37:33.115Z,85.98
2023-04-18T23:39:59.951Z,86.04
2023-04-18T23:42:26.411Z,86.03
2023-04-18T23:44:52.907Z,85.98
2023-04-18T23:47:19.400Z,86.12
2023-04-18T23:49:45.839Z,86.40
2023-04-18T23:52:12.231Z,85.63
2023-04-18T23:54:38.648Z,86.86
2023-04-18T23:57:05.154Z,86.25
2023-04-18T23:59:31.636Z,86.92
